createdAt,value
2018-06-24T12:10:21.493Z,22.20
2018-06-24T12:15:25.877Z,22.30
2018-06-24T12:20:30.500Z,22.30
2018-06-24T12:25:34.958Z,22.30
2018-06-24T12:30:39.427Z,22.30
2018-06-24T12:35:43.729Z,22.30
2018-06-24T12:40:48.186Z,22.50
2018-06-24T12:45:52.696Z,22.50
2018-06-24T12:50:57.073Z,22.50
2018-06-24T12:56:01.429Z,22.50
2018-06-24T13:01:06.169Z,22.60
2018-06-24T13:16:18.550Z,22.20
2018-06-24T13:26:26.741Z,22.10
2018-06-24T13:31:30.982Z,22.30
2018-06-24T13:36:35.397Z,22.30
2018-06-24T13:41:40.797Z,22.20
2018-06-24T13:46:45.058Z,22.10
2018-06-24T13:51:49.697Z,22.00
2018-06-24T13:56:54.198Z,22.20
2018-06-24T14:01:58.501Z,22.30
2018-06-24T14:07:02.933Z,22.50
2018-06-24T14:12:07.303Z,22.80
2018-06-24T14:17:11.579Z,22.90
2018-06-24T14:22:15.768Z,22.80
2018-06-24T14:27:19.556Z,22.90
2018-06-24T14:37:26.773Z,22.50
2018-06-24T14:42:30.384Z,22.70
2018-06-24T14:47:34.569Z,22.70
2018-06-24T14:52:38.189Z,22.80
2018-06-24T14:57:42.361Z,22.80
2018-06-24T15:02:45.900Z,22.80
2018-06-24T15:12:52.845Z,22.80
2018-06-24T15:17:57.516Z,22.80
2018-06-24T15:23:01.324Z,22.80
2018-06-24T15:33:09.348Z,22.80
2018-06-24T15:43:16.782Z,22.80
2018-06-24T15:48:20.383Z,22.90
2018-06-24T15:53:23.889Z,23.10
2018-06-24T15:58:27.625Z,23.20
2018-06-24T16:03:31.377Z,23.20
2018-06-24T16:08:35.241Z,23.30
2018-06-24T16:13:38.917Z,23.20
2018-06-24T16:23:46.289Z,23.10
2018-06-24T16:28:49.812Z,23.00
2018-06-24T16:33:54.257Z,23.10
2018-06-24T16:38:57.939Z,23.20
2018-06-24T16:44:01.629Z,23.30
2018-06-24T16:49:05.664Z,23.30
2018-06-24T16:54:09.231Z,23.30
2018-06-24T16:59:12.889Z,23.30
2018-06-24T17:04:17.062Z,23.30
2018-06-24T17:09:20.668Z,23.40
2018-06-24T17:14:24.180Z,23.40
2018-06-24T17:24:31.455Z,23.40
2018-06-24T17:29:34.980Z,23.50
2018-06-24T17:34:38.888Z,23.60
2018-06-24T17:39:42.465Z,23.60
2018-06-24T17:44:46.145Z,23.50
2018-06-24T17:49:49.663Z,23.50
2018-06-24T17:54:53.367Z,23.50
2018-06-24T17:59:57.000Z,23.50
2018-06-24T18:05:00.711Z,23.50
2018-06-24T18:10:04.375Z,23.50
2018-06-24T18:15:07.939Z,23.50
2018-06-24T18:20:11.391Z,23.40
2018-06-24T18:25:14.985Z,23.40
2018-06-24T18:30:18.712Z,23.20
2018-06-24T18:35:22.789Z,23.10
2018-06-24T18:40:26.945Z,23.00
2018-06-24T18:45:30.744Z,23.00
2018-06-24T18:50:34.309Z,23.00
2018-06-24T18:55:37.994Z,22.90
2018-06-24T19:00:41.576Z,23.20
2018-06-24T19:05:45.239Z,23.10
2018-06-24T19:10:48.881Z,23.00
2018-06-24T19:15:52.764Z,23.00
2018-06-24T19:20:56.592Z,22.90
2018-06-24T19:26:00.395Z,22.90
2018-06-24T19:31:03.935Z,22.90
2018-06-24T19:36:07.641Z,22.90
2018-06-24T19:41:11.164Z,22.90
2018-06-24T19:46:14.724Z,22.90
2018-06-24T19:56:21.633Z,22.90
2018-06-24T20:01:25.419Z,22.90
2018-06-24T20:06:29.139Z,22.90
2018-06-24T20:11:32.790Z,22.90
2018-06-24T20:16:36.870Z,22.90
2018-06-24T20:21:40.417Z,22.90
2018-06-24T20:26:43.949Z,22.90
2018-06-24T20:31:47.492Z,22.90
2018-06-24T20:36:52.177Z,22.90
2018-06-24T20:41:56.037Z,22.90
2018-06-24T20:47:00.230Z,22.90
2018-06-24T20:52:03.713Z,22.90
2018-06-24T20:57:07.297Z,22.90
2018-06-24T21:02:10.809Z,22.90
2018-06-24T21:07:14.699Z,22.90
2018-06-24T21:12:18.309Z,22.80
2018-06-24T21:22:25.848Z,22.80
2018-06-24T21:37:35.836Z,22.80
2018-06-24T21:42:39.457Z,22.80
2018-06-24T21:47:43.443Z,22.80
2018-06-24T21:52:47.084Z,22.80
2018-06-24T21:57:50.712Z,22.80
2018-06-24T22:02:54.486Z,22.80
2018-06-24T22:07:58.205Z,22.80
2018-06-24T22:13:02.399Z,22.80
2018-06-24T22:18:06.198Z,22.80
2018-06-24T22:23:09.748Z,22.80
2018-06-24T22:28:13.636Z,22.80
2018-06-24T22:33:17.121Z,22.80
2018-06-24T22:38:20.753Z,22.80
2018-06-24T22:43:24.265Z,22.80
2018-06-24T22:48:27.796Z,22.80
2018-06-24T22:53:31.508Z,22.80
2018-06-24T22:58:35.312Z,22.80
2018-06-24T23:03:39.355Z,22.80
2018-06-24T23:08:42.870Z,22.80
2018-06-24T23:13:46.784Z,22.80
2018-06-24T23:18:50.433Z,22.80
2018-06-24T23:23:56.133Z,22.80
2018-06-24T23:34:03.248Z,22.80
2018-06-24T23:39:09.276Z,22.80
2018-06-24T23:44:13.637Z,22.80
2018-06-24T23:49:17.157Z,22.80
2018-06-24T23:54:20.678Z,22.80
2018-06-24T23:59:25.142Z,22.80
